sensor_id;sensor_type;location;lat;lon;timestamp;P1;durP1;ratioP1;P2;durP2;ratioP2
58528;SDS011;44322;52.968;5.816;2023-07-30T00:00:43;28.65;;;6.65;;
58528;SDS011;44322;52.968;5.816;2023-07-30T00:03:08;23.80;;;5.47;;
58528;SDS011;44322;52.968;5.816;2023-07-30T00:05:34;21.55;;;5.78;;
58528;SDS011;44322;52.968;5.816;2023-07-30T00:08:00;22.42;;;6.35;;
58528;SDS011;44322;52.968;5.816;2023-07-30T00:10:25;23.65;;;6.15;;
58528;SDS011;44322;52.968;5.816;2023-07-30T00:12:51;22.13;;;6.10;;
58528;SDS011;44322;52.968;5.816;2023-07-30T00:15:16;21.48;;;6.25;;
58528;SDS011;44322;52.968;5.816;2023-07-30T00:17:42;25.65;;;6.10;;
58528;SDS011;44322;52.968;5.816;2023-07-30T00:20:08;28.17;;;5.75;;
58528;SDS011;44322;52.968;5.816;2023-07-30T00:22:34;26.90;;;6.38;;
58528;SDS011;44322;52.968;5.816;2023-07-30T00:24:59;19.10;;;5.45;;
58528;SDS011;44322;52.968;5.816;2023-07-30T00:27:25;25.45;;;6.22;;
58528;SDS011;44322;52.968;5.816;2023-07-30T00:29:50;23.27;;;6.15;;
58528;SDS011;44322;52.968;5.816;2023-07-30T00:32:16;26.08;;;6.13;;
58528;SDS011;44322;52.968;5.816;2023-07-30T00:34:42;29.70;;;6.30;;
58528;SDS011;44322;52.968;5.816;2023-07-30T00:37:08;21.25;;;6.30;;
58528;SDS011;44322;52.968;5.816;2023-07-30T00:39:34;22.70;;;6.55;;
58528;SDS011;44322;52.968;5.816;2023-07-30T00:42:00;28.13;;;6.28;;
58528;SDS011;44322;52.968;5.816;2023-07-30T00:44:25;20.52;;;5.85;;
58528;SDS011;44322;52.968;5.816;2023-07-30T00:46:51;24.90;;;6.10;;
58528;SDS011;44322;52.968;5.816;2023-07-30T00:49:18;27.83;;;5.68;;
58528;SDS011;44322;52.968;5.816;2023-07-30T00:51:44;21.98;;;5.78;;
58528;SDS011;44322;52.968;5.816;2023-07-30T00:54:11;19.55;;;5.40;;
58528;SDS011;44322;52.968;5.816;2023-07-30T00:56:37;24.02;;;5.80;;
58528;SDS011;44322;52.968;5.816;2023-07-30T00:59:03;22.73;;;5.68;;
58528;SDS011;44322;52.968;5.816;2023-07-30T01:01:29;23.80;;;5.63;;
58528;SDS011;44322;52.968;5.816;2023-07-30T01:03:59;28.00;;;6.07;;
58528;SDS011;44322;52.968;5.816;2023-07-30T01:06:24;21.77;;;5.88;;
58528;SDS011;44322;52.968;5.816;2023-07-30T01:08:50;24.23;;;5.88;;
58528;SDS011;44322;52.968;5.816;2023-07-30T01:11:15;24.13;;;5.43;;
58528;SDS011;44322;52.968;5.816;2023-07-30T01:13:42;24.17;;;5.40;;
58528;SDS011;44322;52.968;5.816;2023-07-30T01:16:08;22.17;;;5.97;;
58528;SDS011;44322;52.968;5.816;2023-07-30T01:18:34;20.45;;;5.88;;
58528;SDS011;44322;52.968;5.816;2023-07-30T01:20:59;21.23;;;5.18;;
58528;SDS011;44322;52.968;5.816;2023-07-30T01:23:25;23.02;;;5.53;;
58528;SDS011;44322;52.968;5.816;2023-07-30T01:25:59;29.50;;;6.35;;
58528;SDS011;44322;52.968;5.816;2023-07-30T01:28:28;23.30;;;5.72;;
58528;SDS011;44322;52.968;5.816;2023-07-30T01:30:54;18.95;;;5.20;;
58528;SDS011;44322;52.968;5.816;2023-07-30T01:33:21;27.90;;;6.00;;
58528;SDS011;44322;52.968;5.816;2023-07-30T01:35:48;22.10;;;6.22;;
58528;SDS011;44322;52.968;5.816;2023-07-30T01:38:14;24.50;;;6.10;;
58528;SDS011;44322;52.968;5.816;2023-07-30T01:40:40;25.77;;;6.03;;
58528;SDS011;44322;52.968;5.816;2023-07-30T01:43:06;22.08;;;5.88;;
58528;SDS011;44322;52.968;5.816;2023-07-30T01:45:32;21.13;;;6.15;;
58528;SDS011;44322;52.968;5.816;2023-07-30T01:47:59;21.50;;;4.88;;
58528;SDS011;44322;52.968;5.816;2023-07-30T01:50:25;23.80;;;5.40;;
58528;SDS011;44322;52.968;5.816;2023-07-30T01:52:50;18.10;;;5.40;;
58528;SDS011;44322;52.968;5.816;2023-07-30T01:55:16;22.45;;;5.45;;
58528;SDS011;44322;52.968;5.816;2023-07-30T01:57:42;21.17;;;4.93;;
58528;SDS011;44322;52.968;5.816;2023-07-30T02:00:08;26.42;;;5.18;;
58528;SDS011;44322;52.968;5.816;2023-07-30T02:02:34;23.05;;;5.28;;
58528;SDS011;44322;52.968;5.816;2023-07-30T02:05:00;21.52;;;5.40;;
58528;SDS011;44322;52.968;5.816;2023-07-30T02:07:26;21.95;;;5.20;;
58528;SDS011;44322;52.968;5.816;2023-07-30T02:09:52;21.80;;;4.95;;
58528;SDS011;44322;52.968;5.816;2023-07-30T02:12:18;17.60;;;5.18;;
58528;SDS011;44322;52.968;5.816;2023-07-30T02:14:43;24.85;;;5.55;;
58528;SDS011;44322;52.968;5.816;2023-07-30T02:17:09;20.10;;;4.88;;
58528;SDS011;44322;52.968;5.816;2023-07-30T02:19:34;19.42;;;5.57;;
58528;SDS011;44322;52.968;5.816;2023-07-30T02:22:00;24.55;;;4.82;;
58528;SDS011;44322;52.968;5.816;2023-07-30T02:24:26;15.50;;;4.43;;
58528;SDS011;44322;52.968;5.816;2023-07-30T02:26:52;22.67;;;5.47;;
58528;SDS011;44322;52.968;5.816;2023-07-30T02:29:18;17.67;;;4.78;;
58528;SDS011;44322;52.968;5.816;2023-07-30T02:31:43;22.23;;;5.88;;
58528;SDS011;44322;52.968;5.816;2023-07-30T02:34:09;23.83;;;5.53;;
58528;SDS011;44322;52.968;5.816;2023-07-30T02:36:35;21.52;;;5.15;;
58528;SDS011;44322;52.968;5.816;2023-07-30T02:39:01;21.85;;;4.65;;
58528;SDS011;44322;52.968;5.816;2023-07-30T02:41:26;22.38;;;5.47;;
58528;SDS011;44322;52.968;5.816;2023-07-30T02:43:52;23.65;;;4.70;;
58528;SDS011;44322;52.968;5.816;2023-07-30T02:46:17;18.83;;;5.15;;
58528;SDS011;44322;52.968;5.816;2023-07-30T02:48:43;23.70;;;5.22;;
58528;SDS011;44322;52.968;5.816;2023-07-30T02:51:09;25.85;;;5.10;;
58528;SDS011;44322;52.968;5.816;2023-07-30T02:53:34;18.73;;;4.38;;
58528;SDS011;44322;52.968;5.816;2023-07-30T02:56:00;17.45;;;4.63;;
58528;SDS011;44322;52.968;5.816;2023-07-30T02:58:26;22.20;;;4.63;;
58528;SDS011;44322;52.968;5.816;2023-07-30T03:00:51;25.23;;;5.75;;
58528;SDS011;44322;52.968;5.816;2023-07-30T03:03:17;19.10;;;5.40;;
58528;SDS011;44322;52.968;5.816;2023-07-30T03:05:42;18.65;;;3.90;;
58528;SDS011;44322;52.968;5.816;2023-07-30T03:08:08;21.52;;;4.35;;
58528;SDS011;44322;52.968;5.816;2023-07-30T03:10:35;19.98;;;5.22;;
58528;SDS011;44322;52.968;5.816;2023-07-30T03:15:27;16.50;;;3.67;;
58528;SDS011;44322;52.968;5.816;2023-07-30T03:17:53;14.50;;;3.60;;
58528;SDS011;44322;52.968;5.816;2023-07-30T03:20:18;11.43;;;3.60;;
58528;SDS011;44322;52.968;5.816;2023-07-30T03:22:44;18.75;;;3.83;;
58528;SDS011;44322;52.968;5.816;2023-07-30T03:25:10;14.13;;;3.08;;
58528;SDS011;44322;52.968;5.816;2023-07-30T03:27:35;11.43;;;3.10;;
58528;SDS011;44322;52.968;5.816;2023-07-30T03:30:01;10.82;;;3.28;;
58528;SDS011;44322;52.968;5.816;2023-07-30T03:32:26;12.55;;;3.47;;
58528;SDS011;44322;52.968;5.816;2023-07-30T03:34:52;15.55;;;4.00;;
58528;SDS011;44322;52.968;5.816;2023-07-30T03:37:19;18.15;;;3.33;;
58528;SDS011;44322;52.968;5.816;2023-07-30T03:39:44;11.93;;;2.90;;
58528;SDS011;44322;52.968;5.816;2023-07-30T03:42:10;12.57;;;2.60;;
58528;SDS011;44322;52.968;5.816;2023-07-30T03:44:35;14.30;;;2.90;;
58528;SDS011;44322;52.968;5.816;2023-07-30T03:47:01;8.20;;;2.30;;
58528;SDS011;44322;52.968;5.816;2023-07-30T03:49:27;11.52;;;2.60;;
58528;SDS011;44322;52.968;5.816;2023-07-30T03:51:53;7.97;;;2.40;;
58528;SDS011;44322;52.968;5.816;2023-07-30T03:54:19;7.80;;;2.22;;
58528;SDS011;44322;52.968;5.816;2023-07-30T03:56:44;6.95;;;2.33;;
58528;SDS011;44322;52.968;5.816;2023-07-30T03:59:10;8.82;;;2.45;;
58528;SDS011;44322;52.968;5.816;2023-07-30T04:01:36;7.80;;;1.98;;
58528;SDS011;44322;52.968;5.816;2023-07-30T04:04:01;9.30;;;1.95;;
58528;SDS011;44322;52.968;5.816;2023-07-30T04:06:28;9.32;;;2.03;;
58528;SDS011;44322;52.968;5.816;2023-07-30T04:08:54;8.13;;;1.77;;
58528;SDS011;44322;52.968;5.816;2023-07-30T04:11:20;10.73;;;2.22;;
58528;SDS011;44322;52.968;5.816;2023-07-30T04:13:45;7.93;;;2.00;;
58528;SDS011;44322;52.968;5.816;2023-07-30T04:16:11;9.07;;;2.22;;
58528;SDS011;44322;52.968;5.816;2023-07-30T04:18:36;8.05;;;1.92;;
58528;SDS011;44322;52.968;5.816;2023-07-30T04:21:02;10.02;;;2.08;;
58528;SDS011;44322;52.968;5.816;2023-07-30T04:23:27;9.73;;;1.92;;
58528;SDS011;44322;52.968;5.816;2023-07-30T04:25:53;9.45;;;2.55;;
58528;SDS011;44322;52.968;5.816;2023-07-30T04:28:19;7.00;;;1.80;;
58528;SDS011;44322;52.968;5.816;2023-07-30T04:30:44;8.00;;;2.00;;
58528;SDS011;44322;52.968;5.816;2023-07-30T04:35:39;10.07;;;1.93;;
58528;SDS011;44322;52.968;5.816;2023-07-30T04:38:05;7.50;;;1.85;;
58528;SDS011;44322;52.968;5.816;2023-07-30T04:40:31;5.22;;;1.60;;
58528;SDS011;44322;52.968;5.816;2023-07-30T04:42:56;9.68;;;2.58;;
58528;SDS011;44322;52.968;5.816;2023-07-30T04:45:22;8.20;;;1.80;;
58528;SDS011;44322;52.968;5.816;2023-07-30T04:47:49;6.82;;;1.45;;
58528;SDS011;44322;52.968;5.816;2023-07-30T04:50:15;9.55;;;1.83;;
58528;SDS011;44322;52.968;5.816;2023-07-30T04:52:41;7.45;;;1.52;;
58528;SDS011;44322;52.968;5.816;2023-07-30T04:55:06;9.93;;;2.17;;
58528;SDS011;44322;52.968;5.816;2023-07-30T04:57:32;5.57;;;1.98;;
58528;SDS011;44322;52.968;5.816;2023-07-30T04:59:58;7.10;;;1.80;;
58528;SDS011;44322;52.968;5.816;2023-07-30T05:02:24;8.35;;;2.03;;
58528;SDS011;44322;52.968;5.816;2023-07-30T05:04:49;7.38;;;1.80;;
58528;SDS011;44322;52.968;5.816;2023-07-30T05:07:15;8.70;;;2.08;;
58528;SDS011;44322;52.968;5.816;2023-07-30T05:09:40;12.18;;;2.20;;
58528;SDS011;44322;52.968;5.816;2023-07-30T05:12:06;5.97;;;1.63;;
58528;SDS011;44322;52.968;5.816;2023-07-30T05:14:32;9.68;;;2.28;;
58528;SDS011;44322;52.968;5.816;2023-07-30T05:16:57;7.28;;;2.20;;
58528;SDS011;44322;52.968;5.816;2023-07-30T05:19:23;10.27;;;2.47;;
58528;SDS011;44322;52.968;5.816;2023-07-30T05:21:48;7.30;;;2.30;;
58528;SDS011;44322;52.968;5.816;2023-07-30T05:24:14;6.93;;;1.92;;
58528;SDS011;44322;52.968;5.816;2023-07-30T05:26:40;7.72;;;2.13;;
58528;SDS011;44322;52.968;5.816;2023-07-30T05:29:05;7.43;;;2.22;;
58528;SDS011;44322;52.968;5.816;2023-07-30T05:31:31;9.73;;;2.25;;
58528;SDS011;44322;52.968;5.816;2023-07-30T05:33:56;9.30;;;2.05;;
58528;SDS011;44322;52.968;5.816;2023-07-30T05:36:22;5.95;;;2.08;;
58528;SDS011;44322;52.968;5.816;2023-07-30T05:38:48;7.70;;;2.10;;
58528;SDS011;44322;52.968;5.816;2023-07-30T05:41:13;11.07;;;2.47;;
58528;SDS011;44322;52.968;5.816;2023-07-30T05:43:39;10.45;;;2.58;;
58528;SDS011;44322;52.968;5.816;2023-07-30T05:46:04;7.32;;;2.20;;
58528;SDS011;44322;52.968;5.816;2023-07-30T05:48:30;7.93;;;1.98;;
58528;SDS011;44322;52.968;5.816;2023-07-30T05:50:55;6.80;;;2.20;;
58528;SDS011;44322;52.968;5.816;2023-07-30T05:53:21;10.13;;;2.28;;
58528;SDS011;44322;52.968;5.816;2023-07-30T05:55:46;7.63;;;2.30;;
58528;SDS011;44322;52.968;5.816;2023-07-30T05:58:12;9.88;;;2.70;;
58528;SDS011;44322;52.968;5.816;2023-07-30T06:00:39;7.10;;;2.53;;
58528;SDS011;44322;52.968;5.816;2023-07-30T06:03:04;8.20;;;2.55;;
58528;SDS011;44322;52.968;5.816;2023-07-30T06:05:31;7.45;;;2.00;;
58528;SDS011;44322;52.968;5.816;2023-07-30T06:07:56;9.70;;;3.28;;
58528;SDS011;44322;52.968;5.816;2023-07-30T06:10:22;7.60;;;2.28;;
58528;SDS011;44322;52.968;5.816;2023-07-30T06:12:48;10.32;;;2.67;;
58528;SDS011;44322;52.968;5.816;2023-07-30T06:15:13;9.48;;;2.72;;
58528;SDS011;44322;52.968;5.816;2023-07-30T06:17:39;12.25;;;2.40;;
58528;SDS011;44322;52.968;5.816;2023-07-30T06:20:04;8.57;;;2.15;;
58528;SDS011;44322;52.968;5.816;2023-07-30T06:22:31;9.82;;;1.98;;
58528;SDS011;44322;52.968;5.816;2023-07-30T06:24:56;7.45;;;2.20;;
58528;SDS011;44322;52.968;5.816;2023-07-30T06:27:22;8.07;;;2.03;;
58528;SDS011;44322;52.968;5.816;2023-07-30T06:29:47;14.20;;;2.20;;
58528;SDS011;44322;52.968;5.816;2023-07-30T06:32:13;10.77;;;2.10;;
58528;SDS011;44322;52.968;5.816;2023-07-30T06:34:38;11.82;;;2.70;;
58528;SDS011;44322;52.968;5.816;2023-07-30T06:37:04;11.15;;;2.35;;
58528;SDS011;44322;52.968;5.816;2023-07-30T06:39:29;11.13;;;2.75;;
58528;SDS011;44322;52.968;5.816;2023-07-30T06:41:55;8.60;;;2.40;;
58528;SDS011;44322;52.968;5.816;2023-07-30T06:44:21;7.10;;;2.30;;
58528;SDS011;44322;52.968;5.816;2023-07-30T06:46:49;11.90;;;2.35;;
58528;SDS011;44322;52.968;5.816;2023-07-30T06:49:15;8.38;;;2.00;;
58528;SDS011;44322;52.968;5.816;2023-07-30T06:51:40;6.65;;;1.90;;
58528;SDS011;44322;52.968;5.816;2023-07-30T06:54:06;9.27;;;2.38;;
58528;SDS011;44322;52.968;5.816;2023-07-30T06:56:31;10.00;;;2.60;;
58528;SDS011;44322;52.968;5.816;2023-07-30T06:58:57;9.95;;;2.50;;
58528;SDS011;44322;52.968;5.816;2023-07-30T07:01:22;8.52;;;2.30;;
58528;SDS011;44322;52.968;5.816;2023-07-30T07:03:48;8.13;;;2.10;;
58528;SDS011;44322;52.968;5.816;2023-07-30T07:06:14;9.05;;;2.20;;
58528;SDS011;44322;52.968;5.816;2023-07-30T07:08:39;9.07;;;2.17;;
58528;SDS011;44322;52.968;5.816;2023-07-30T07:11:05;10.80;;;2.10;;
58528;SDS011;44322;52.968;5.816;2023-07-30T07:13:31;13.25;;;2.42;;
58528;SDS011;44322;52.968;5.816;2023-07-30T07:15:56;7.40;;;2.33;;
58528;SDS011;44322;52.968;5.816;2023-07-30T07:18:22;7.63;;;2.22;;
58528;SDS011;44322;52.968;5.816;2023-07-30T07:20:47;10.60;;;2.88;;
58528;SDS011;44322;52.968;5.816;2023-07-30T07:23:13;9.02;;;2.00;;
58528;SDS011;44322;52.968;5.816;2023-07-30T07:25:39;12.18;;;2.30;;
58528;SDS011;44322;52.968;5.816;2023-07-30T07:28:05;12.77;;;2.95;;
58528;SDS011;44322;52.968;5.816;2023-07-30T07:30:30;8.75;;;2.17;;
58528;SDS011;44322;52.968;5.816;2023-07-30T07:32:56;8.30;;;2.25;;
58528;SDS011;44322;52.968;5.816;2023-07-30T07:35:22;7.72;;;2.03;;
58528;SDS011;44322;52.968;5.816;2023-07-30T07:37:48;5.57;;;1.60;;
58528;SDS011;44322;52.968;5.816;2023-07-30T07:40:13;6.28;;;1.60;;
58528;SDS011;44322;52.968;5.816;2023-07-30T07:42:39;9.98;;;2.22;;
58528;SDS011;44322;52.968;5.816;2023-07-30T07:45:05;7.53;;;1.92;;
58528;SDS011;44322;52.968;5.816;2023-07-30T07:47:31;4.73;;;1.47;;
58528;SDS011;44322;52.968;5.816;2023-07-30T07:49:57;9.20;;;1.65;;
58528;SDS011;44322;52.968;5.816;2023-07-30T07:52:22;7.05;;;1.60;;
58528;SDS011;44322;52.968;5.816;2023-07-30T07:54:48;7.00;;;1.80;;
58528;SDS011;44322;52.968;5.816;2023-07-30T07:57:14;5.82;;;1.63;;
58528;SDS011;44322;52.968;5.816;2023-07-30T07:59:39;6.53;;;1.65;;
58528;SDS011;44322;52.968;5.816;2023-07-30T08:02:06;6.10;;;1.65;;
58528;SDS011;44322;52.968;5.816;2023-07-30T08:04:32;5.75;;;1.80;;
58528;SDS011;44322;52.968;5.816;2023-07-30T08:06:58;5.68;;;1.67;;
58528;SDS011;44322;52.968;5.816;2023-07-30T08:09:25;8.32;;;1.95;;
58528;SDS011;44322;52.968;5.816;2023-07-30T08:11:50;7.18;;;2.03;;
58528;SDS011;44322;52.968;5.816;2023-07-30T08:14:16;6.57;;;2.47;;
58528;SDS011;44322;52.968;5.816;2023-07-30T08:16:42;10.40;;;2.10;;
58528;SDS011;44322;52.968;5.816;2023-07-30T08:19:07;9.27;;;2.05;;
58528;SDS011;44322;52.968;5.816;2023-07-30T08:21:33;10.63;;;1.95;;
58528;SDS011;44322;52.968;5.816;2023-07-30T08:23:58;10.57;;;3.10;;
58528;SDS011;44322;52.968;5.816;2023-07-30T08:26:24;7.53;;;2.05;;
58528;SDS011;44322;52.968;5.816;2023-07-30T08:28:49;9.13;;;2.20;;
58528;SDS011;44322;52.968;5.816;2023-07-30T08:31:15;6.57;;;2.15;;
58528;SDS011;44322;52.968;5.816;2023-07-30T08:33:41;14.13;;;2.67;;
58528;SDS011;44322;52.968;5.816;2023-07-30T08:36:06;4.90;;;1.40;;
58528;SDS011;44322;52.968;5.816;2023-07-30T08:38:32;8.02;;;1.65;;
58528;SDS011;44322;52.968;5.816;2023-07-30T08:40:57;4.88;;;1.60;;
58528;SDS011;44322;52.968;5.816;2023-07-30T08:43:23;4.68;;;1.50;;
58528;SDS011;44322;52.968;5.816;2023-07-30T08:45:49;7.13;;;1.63;;
58528;SDS011;44322;52.968;5.816;2023-07-30T08:48:14;6.22;;;1.88;;
58528;SDS011;44322;52.968;5.816;2023-07-30T08:50:40;5.70;;;1.63;;
58528;SDS011;44322;52.968;5.816;2023-07-30T08:53:06;6.25;;;1.38;;
58528;SDS011;44322;52.968;5.816;2023-07-30T08:55:33;5.53;;;1.60;;
58528;SDS011;44322;52.968;5.816;2023-07-30T08:58:02;8.02;;;1.63;;
58528;SDS011;44322;52.968;5.816;2023-07-30T09:00:30;5.70;;;1.50;;
58528;SDS011;44322;52.968;5.816;2023-07-30T09:03:02;6.05;;;1.70;;
58528;SDS011;44322;52.968;5.816;2023-07-30T09:05:29;6.00;;;1.67;;
58528;SDS011;44322;52.968;5.816;2023-07-30T09:07:55;5.13;;;1.65;;
58528;SDS011;44322;52.968;5.816;2023-07-30T09:10:21;6.20;;;2.13;;
58528;SDS011;44322;52.968;5.816;2023-07-30T09:12:55;7.38;;;1.70;;
58528;SDS011;44322;52.968;5.816;2023-07-30T09:15:33;7.47;;;1.83;;
58528;SDS011;44322;52.968;5.816;2023-07-30T09:18:03;7.45;;;1.85;;
58528;SDS011;44322;52.968;5.816;2023-07-30T09:20:39;9.23;;;2.07;;
58528;SDS011;44322;52.968;5.816;2023-07-30T09:23:05;8.50;;;1.80;;
58528;SDS011;44322;52.968;5.816;2023-07-30T09:25:32;8.10;;;1.83;;
58528;SDS011;44322;52.968;5.816;2023-07-30T09:27:58;6.82;;;1.88;;
58528;SDS011;44322;52.968;5.816;2023-07-30T09:30:24;6.82;;;2.05;;
58528;SDS011;44322;52.968;5.816;2023-07-30T09:32:57;9.80;;;2.38;;
58528;SDS011;44322;52.968;5.816;2023-07-30T09:35:24;8.30;;;2.13;;
58528;SDS011;44322;52.968;5.816;2023-07-30T09:37:57;10.68;;;2.08;;
58528;SDS011;44322;52.968;5.816;2023-07-30T09:40:30;8.13;;;1.70;;
58528;SDS011;44322;52.968;5.816;2023-07-30T09:42:59;11.02;;;2.10;;
58528;SDS011;44322;52.968;5.816;2023-07-30T09:45:25;9.30;;;1.98;;
58528;SDS011;44322;52.968;5.816;2023-07-30T09:47:51;10.80;;;2.40;;
58528;SDS011;44322;52.968;5.816;2023-07-30T09:50:18;7.10;;;1.97;;
58528;SDS011;44322;52.968;5.816;2023-07-30T09:52:43;9.60;;;2.08;;
58528;SDS011;44322;52.968;5.816;2023-07-30T09:55:10;7.40;;;1.98;;
58528;SDS011;44322;52.968;5.816;2023-07-30T09:57:36;9.88;;;2.25;;
58528;SDS011;44322;52.968;5.816;2023-07-30T10:00:03;10.20;;;2.15;;
58528;SDS011;44322;52.968;5.816;2023-07-30T10:02:33;13.90;;;2.40;;
58528;SDS011;44322;52.968;5.816;2023-07-30T10:05:10;6.50;;;1.60;;
58528;SDS011;44322;52.968;5.816;2023-07-30T10:07:38;8.57;;;1.90;;
58528;SDS011;44322;52.968;5.816;2023-07-30T10:10:07;6.20;;;1.95;;
58528;SDS011;44322;52.968;5.816;2023-07-30T10:12:34;11.77;;;2.38;;
58528;SDS011;44322;52.968;5.816;2023-07-30T10:15:01;9.82;;;2.03;;
58528;SDS011;44322;52.968;5.816;2023-07-30T10:17:27;8.77;;;2.30;;
58528;SDS011;44322;52.968;5.816;2023-07-30T10:19:53;8.35;;;2.03;;
58528;SDS011;44322;52.968;5.816;2023-07-30T10:22:20;8.43;;;1.90;;
58528;SDS011;44322;52.968;5.816;2023-07-30T10:25:02;9.23;;;2.00;;
58528;SDS011;44322;52.968;5.816;2023-07-30T10:27:38;8.40;;;2.22;;
58528;SDS011;44322;52.968;5.816;2023-07-30T10:30:15;8.65;;;2.00;;
58528;SDS011;44322;52.968;5.816;2023-07-30T10:32:57;6.05;;;1.70;;
58528;SDS011;44322;52.968;5.816;2023-07-30T10:35:46;10.27;;;1.80;;
58528;SDS011;44322;52.968;5.816;2023-07-30T10:38:21;6.88;;;2.00;;
58528;SDS011;44322;52.968;5.816;2023-07-30T10:41:03;9.38;;;2.05;;
58528;SDS011;44322;52.968;5.816;2023-07-30T10:43:30;9.77;;;2.10;;
58528;SDS011;44322;52.968;5.816;2023-07-30T10:45:56;7.60;;;1.90;;
58528;SDS011;44322;52.968;5.816;2023-07-30T10:51:01;5.72;;;1.88;;
58528;SDS011;44322;52.968;5.816;2023-07-30T10:53:27;9.80;;;1.88;;
58528;SDS011;44322;52.968;5.816;2023-07-30T10:55:53;7.70;;;1.85;;
58528;SDS011;44322;52.968;5.816;2023-07-30T10:58:20;9.15;;;2.00;;
58528;SDS011;44322;52.968;5.816;2023-07-30T11:00:46;6.28;;;1.95;;
58528;SDS011;44322;52.968;5.816;2023-07-30T11:03:11;5.70;;;1.60;;
58528;SDS011;44322;52.968;5.816;2023-07-30T11:05:40;5.40;;;1.83;;
58528;SDS011;44322;52.968;5.816;2023-07-30T11:08:05;14.63;;;2.08;;
58528;SDS011;44322;52.968;5.816;2023-07-30T11:10:31;5.75;;;1.77;;
58528;SDS011;44322;52.968;5.816;2023-07-30T11:12:57;10.15;;;1.73;;
58528;SDS011;44322;52.968;5.816;2023-07-30T11:15:23;7.70;;;1.85;;
58528;SDS011;44322;52.968;5.816;2023-07-30T11:17:51;9.23;;;2.28;;
58528;SDS011;44322;52.968;5.816;2023-07-30T11:22:51;13.52;;;2.40;;
58528;SDS011;44322;52.968;5.816;2023-07-30T11:25:17;6.90;;;2.30;;
58528;SDS011;44322;52.968;5.816;2023-07-30T11:27:46;6.97;;;2.00;;
58528;SDS011;44322;52.968;5.816;2023-07-30T11:30:19;6.57;;;1.98;;
58528;SDS011;44322;52.968;5.816;2023-07-30T11:32:45;6.22;;;1.90;;
58528;SDS011;44322;52.968;5.816;2023-07-30T11:35:11;9.65;;;2.28;;
58528;SDS011;44322;52.968;5.816;2023-07-30T11:37:37;12.20;;;2.53;;
58528;SDS011;44322;52.968;5.816;2023-07-30T11:40:14;6.80;;;2.05;;
58528;SDS011;44322;52.968;5.816;2023-07-30T11:42:40;7.68;;;1.83;;
58528;SDS011;44322;52.968;5.816;2023-07-30T11:45:17;8.80;;;2.30;;
58528;SDS011;44322;52.968;5.816;2023-07-30T11:47:45;8.15;;;1.92;;
58528;SDS011;44322;52.968;5.816;2023-07-30T11:50:10;9.43;;;1.83;;
58528;SDS011;44322;52.968;5.816;2023-07-30T11:52:36;9.25;;;2.05;;
58528;SDS011;44322;52.968;5.816;2023-07-30T11:55:02;7.80;;;1.75;;
58528;SDS011;44322;52.968;5.816;2023-07-30T11:57:37;10.00;;;2.25;;
58528;SDS011;44322;52.968;5.816;2023-07-30T12:00:03;9.65;;;2.08;;
58528;SDS011;44322;52.968;5.816;2023-07-30T12:02:37;7.97;;;1.70;;
58528;SDS011;44322;52.968;5.816;2023-07-30T12:05:03;6.65;;;1.55;;
58528;SDS011;44322;52.968;5.816;2023-07-30T12:07:29;5.30;;;1.48;;
58528;SDS011;44322;52.968;5.816;2023-07-30T12:10:10;8.65;;;2.03;;
58528;SDS011;44322;52.968;5.816;2023-07-30T12:12:36;6.70;;;1.80;;
58528;SDS011;44322;52.968;5.816;2023-07-30T12:15:09;5.78;;;1.55;;
58528;SDS011;44322;52.968;5.816;2023-07-30T12:17:35;6.93;;;1.58;;
58528;SDS011;44322;52.968;5.816;2023-07-30T12:20:01;7.25;;;1.48;;
58528;SDS011;44322;52.968;5.816;2023-07-30T12:22:32;4.00;;;1.02;;
58528;SDS011;44322;52.968;5.816;2023-07-30T12:27:25;5.50;;;1.40;;
58528;SDS011;44322;52.968;5.816;2023-07-30T12:29:51;5.68;;;1.50;;
58528;SDS011;44322;52.968;5.816;2023-07-30T12:32:16;8.07;;;2.00;;
58528;SDS011;44322;52.968;5.816;2023-07-30T12:34:42;7.03;;;1.38;;
58528;SDS011;44322;52.968;5.816;2023-07-30T12:37:07;8.70;;;1.80;;
58528;SDS011;44322;52.968;5.816;2023-07-30T12:39:34;6.38;;;1.52;;
58528;SDS011;44322;52.968;5.816;2023-07-30T12:42:00;5.03;;;1.23;;
58528;SDS011;44322;52.968;5.816;2023-07-30T12:44:25;8.10;;;1.85;;
58528;SDS011;44322;52.968;5.816;2023-07-30T12:46:51;6.28;;;1.80;;
58528;SDS011;44322;52.968;5.816;2023-07-30T12:49:17;6.68;;;1.30;;
58528;SDS011;44322;52.968;5.816;2023-07-30T12:51:43;8.65;;;1.80;;
58528;SDS011;44322;52.968;5.816;2023-07-30T12:54:09;5.75;;;1.92;;
58528;SDS011;44322;52.968;5.816;2023-07-30T12:56:35;4.85;;;1.75;;
58528;SDS011;44322;52.968;5.816;2023-07-30T12:59:01;6.72;;;1.52;;
58528;SDS011;44322;52.968;5.816;2023-07-30T13:01:26;9.55;;;1.75;;
58528;SDS011;44322;52.968;5.816;2023-07-30T13:03:52;6.22;;;1.42;;
58528;SDS011;44322;52.968;5.816;2023-07-30T13:06:22;8.93;;;2.10;;
58528;SDS011;44322;52.968;5.816;2023-07-30T13:08:48;5.40;;;1.70;;
58528;SDS011;44322;52.968;5.816;2023-07-30T13:11:14;7.07;;;1.42;;
58528;SDS011;44322;52.968;5.816;2023-07-30T13:13:39;9.40;;;1.65;;
58528;SDS011;44322;52.968;5.816;2023-07-30T13:16:05;8.68;;;1.73;;
58528;SDS011;44322;52.968;5.816;2023-07-30T13:18:31;6.30;;;2.05;;
58528;SDS011;44322;52.968;5.816;2023-07-30T13:20:56;7.07;;;1.60;;
58528;SDS011;44322;52.968;5.816;2023-07-30T13:23:22;6.57;;;1.35;;
58528;SDS011;44322;52.968;5.816;2023-07-30T13:25:50;7.30;;;1.67;;
58528;SDS011;44322;52.968;5.816;2023-07-30T13:28:16;6.18;;;1.33;;
58528;SDS011;44322;52.968;5.816;2023-07-30T13:30:41;4.55;;;1.63;;
58528;SDS011;44322;52.968;5.816;2023-07-30T13:33:07;6.10;;;1.92;;
58528;SDS011;44322;52.968;5.816;2023-07-30T13:35:32;9.77;;;1.95;;
58528;SDS011;44322;52.968;5.816;2023-07-30T13:37:58;6.07;;;1.60;;
58528;SDS011;44322;52.968;5.816;2023-07-30T13:40:24;6.88;;;1.40;;
58528;SDS011;44322;52.968;5.816;2023-07-30T13:42:50;5.15;;;1.55;;
58528;SDS011;44322;52.968;5.816;2023-07-30T13:45:15;8.20;;;1.60;;
58528;SDS011;44322;52.968;5.816;2023-07-30T13:47:41;10.05;;;1.67;;
58528;SDS011;44322;52.968;5.816;2023-07-30T13:50:07;8.75;;;2.05;;
58528;SDS011;44322;52.968;5.816;2023-07-30T13:52:33;6.88;;;1.85;;
58528;SDS011;44322;52.968;5.816;2023-07-30T13:54:58;9.13;;;1.88;;
58528;SDS011;44322;52.968;5.816;2023-07-30T13:57:24;4.80;;;1.35;;
58528;SDS011;44322;52.968;5.816;2023-07-30T13:59:51;5.25;;;1.65;;
58528;SDS011;44322;52.968;5.816;2023-07-30T14:02:17;5.15;;;1.70;;
58528;SDS011;44322;52.968;5.816;2023-07-30T14:04:42;5.53;;;1.52;;
58528;SDS011;44322;52.968;5.816;2023-07-30T14:07:08;6.13;;;2.00;;
58528;SDS011;44322;52.968;5.816;2023-07-30T14:09:34;7.10;;;1.75;;
58528;SDS011;44322;52.968;5.816;2023-07-30T14:12:04;9.30;;;1.83;;
58528;SDS011;44322;52.968;5.816;2023-07-30T14:14:30;7.55;;;1.77;;
58528;SDS011;44322;52.968;5.816;2023-07-30T14:16:56;7.30;;;1.63;;
58528;SDS011;44322;52.968;5.816;2023-07-30T14:19:22;5.38;;;1.52;;
58528;SDS011;44322;52.968;5.816;2023-07-30T14:21:47;4.95;;;1.83;;
58528;SDS011;44322;52.968;5.816;2023-07-30T14:24:13;8.13;;;1.73;;
58528;SDS011;44322;52.968;5.816;2023-07-30T14:26:38;4.90;;;1.48;;
58528;SDS011;44322;52.968;5.816;2023-07-30T14:29:04;5.95;;;1.50;;
58528;SDS011;44322;52.968;5.816;2023-07-30T14:31:30;5.50;;;1.65;;
58528;SDS011;44322;52.968;5.816;2023-07-30T14:33:55;6.30;;;1.55;;
58528;SDS011;44322;52.968;5.816;2023-07-30T14:36:21;8.65;;;1.67;;
58528;SDS011;44322;52.968;5.816;2023-07-30T14:38:47;4.03;;;1.35;;
58528;SDS011;44322;52.968;5.816;2023-07-30T14:41:12;3.58;;;1.65;;
58528;SDS011;44322;52.968;5.816;2023-07-30T14:43:38;7.80;;;1.98;;
58528;SDS011;44322;52.968;5.816;2023-07-30T14:46:03;5.18;;;1.52;;
58528;SDS011;44322;52.968;5.816;2023-07-30T14:48:29;5.85;;;1.90;;
58528;SDS011;44322;52.968;5.816;2023-07-30T14:50:55;6.38;;;2.03;;